Salinas Municipal Airport
KSNS : now visible

Airfield :











YOU CAN JOIN US ON...

 
LOGIN :

Register | Disclaimer

   EN    FR    IT 

 









Legend :    VFR   Marginal VFR   IFR   Intensive IFR   Very Intensive IFR
Visi :
Ceiling :
>= 8 km
>= 3000ft
5 to 8 km
1000 to 3000 ft
1500m to 5 km
500 to 1000 ft
800 to 1500m
200 to 500 ft
< 800m
< 200 ft
Symbols :   Thunderstorms  Fog  Heavy snow  Heavy precipitations  Wind > 20 kt







- Airport Elevation : 85 ft


KSNS - Salinas Municipal

CURRENT METAR :
  • 220153Z 26009KT 10SM CLR 22/10 A2989 RMK AO2 SLP129 T02220100

EXPIRED METARs :
  • 220053Z 30006KT 10SM CLR 24/10 A2987 RMK AO2 SLP124 T02390100
  • 212353Z 31007KT 270V330 10SM CLR 24/10 A2987 RMK AO2 SLP122 T02440100 10311 20233 55003

TAF KSNS
Valid from the 22 at 00:00 until the 23 at 00:00 UTC


212339Z 2200/2224 31015KT P6SM SKC
FM220400 VRB03KT P6SM SKC
FM221100 14005KT P6SM SKC
FM222100 28013KT P6SM SKC
No reported NOTAMs for that airfield.



MET'MAP, your aeronautical weather chart ! - Copyright ORBIFLY December 2007 - Disclaimer

ORBIFLY MET'MAP TEAM :

Programming & Development : Alexandra Zaïnal
Concept & Development : Baudouin d'Aumeries
Co-Development & Prog : Marc-Olivier Méhu
Technical & hardware support : Manuel Goepfert

Contact : metmap@orbifly.com




SOURCES & CREDITS :

   NOAA       Earth
Advisory